This is the latest recevied weather packets stored in our database for station/object OE-11372. If no packets are shown the sender has not sent any weather packets the latest 10 day(s).
| Time | Temp. | Humidity | Pressure | Rain* | Wind** | Luminosity | Snow |
|---|---|---|---|---|---|---|---|
| 1788110703 | 20.56° C | 64% | 852.1 hPa | 0 mm | - | 41 W/m² | - |
| 1788109876 | 20.56° C | 64% | 852.2 hPa | 0 mm | - | 41 W/m² | - |
| 1788109503 | 20.56° C | 64% | 852.2 hPa | 0 mm | - | 33 W/m² | - |
| 1788108902 | 20.56° C | 64% | 852.2 hPa | 0 mm | - | 49 W/m² | - |
| 1788108075 | 20.56° C | 62% | 852.2 hPa | 0 mm | - | 49 W/m² | - |
| 1788107703 | 21.11° C | 59% | 852.3 hPa | 0 mm | - | 58 W/m² | - |
| 1788107103 | 21.67° C | 59% | 852.3 hPa | 0 mm | - | 58 W/m² | - |
| 1788106276 | 22.22° C | 52% | 852.4 hPa | 0 mm | - | 66 W/m² | - |
| 1788105903 | 22.22° C | 56% | 852.4 hPa | 0 mm | - | 66 W/m² | - |
| 1788105303 | 22.78° C | 54% | 852.5 hPa | 0 mm | - | 66 W/m² | - |
| 1788104476 | 23.33° C | 55% | 852.6 hPa | 0 mm | - | 222 W/m² | - |
| 1788104103 | 23.33° C | 57% | 852.7 hPa | 0 mm | - | 206 W/m² | - |
| 1788103503 | 24.44° C | 53% | 853 hPa | 0 mm | - | 437 W/m² | - |
| 1788102675 | 23.33° C | 54% | 852.8 hPa | 0 mm | - | 354 W/m² | - |
| 1788102303 | 25° C | 49% | 853 hPa | 0 mm | - | 371 W/m² | - |
| 1788101703 | 24.44° C | 46% | 852.8 hPa | 0 mm | - | 346 W/m² | - |
| 1788100876 | 24.44° C | 43% | 852.9 hPa | 0 mm | - | 272 W/m² | - |
| 1788100502 | 24.44° C | 44% | 852.9 hPa | 0 mm | - | 502 W/m² | - |
| 1788099903 | 25° C | 41% | 853 hPa | 0 mm | - | 552 W/m² | - |
| 1788099075 | 25° C | 43% | 853.1 hPa | 0 mm | - | 568 W/m² | - |
| 1788098703 | 25° C | 46% | 853.1 hPa | 0 mm | - | 667 W/m² | - |
| 1788098102 | 23.89° C | 46% | 853 hPa | 0 mm | - | 502 W/m² | - |
| 1788097276 | 23.33° C | 48% | 853.2 hPa | 0 mm | - | 297 W/m² | - |
| 1788096903 | 22.78° C | 51% | 853.3 hPa | 0 mm | - | 206 W/m² | - |
| 1788096302 | 22.78° C | 48% | 853.4 hPa | 0 mm | - | 214 W/m² | - |
* Rain latest hour (hover to see other rain measurements)
** Current wind speed in m/s (hover to see current wind gust speed)